Time,TemperatureF,DewpointF,PressureIn,WindDirection,WindDirectionDegrees,WindSpeedMPH,WindSpeedGustMPH,Humidity,HourlyPrecipIn,Conditions,Clouds,dailyrainin,SoftwareType,DateUTC
2013-01-18 00:03:00,36.0,30.0,30.03,North,350,9.0,-999.0,80,-99.99,,,-99.99,,2013-01-18 05:03:00,
2013-01-18 00:12:00,36.0,30.0,30.03,NNW,330,9.0,-999.0,80,-99.99,,,-99.99,,2013-01-18 05:12:00,
2013-01-18 00:22:00,36.0,30.0,30.01,NW,320,10.0,-999.0,80,-99.99,,,-99.99,,2013-01-18 05:22:00,
2013-01-18 00:32:00,36.0,28.0,30.02,NW,320,10.0,-999.0,74,0.00,,,-99.99,,2013-01-18 05:32:00,
2013-01-18 00:42:00,36.0,28.0,30.03,NW,320,7.0,-999.0,74,0.00,,,-99.99,,2013-01-18 05:42:00,
2013-01-18 00:52:00,36.0,28.0,30.05,NW,310,9.0,-999.0,74,0.00,,,-99.99,,2013-01-18 05:52:00,
2013-01-18 01:02:00,36.0,28.0,30.05,NW,310,9.0,-999.0,74,0.00,,,-99.99,,2013-01-18 06:02:00,
2013-01-18 01:11:00,36.0,28.0,30.04,NNW,330,10.0,-999.0,74,0.00,,,-99.99,,2013-01-18 06:11:00,
2013-01-18 01:22:00,36.0,28.0,30.06,NW,320,7.0,-999.0,74,0.00,,,-99.99,,2013-01-18 06:22:00,
2013-01-18 01:32:00,36.0,28.0,30.06,NW,320,9.0,-999.0,74,0.00,,,-99.99,,2013-01-18 06:32:00,
2013-01-18 01:42:00,36.0,28.0,30.06,NW,320,9.0,-999.0,74,0.00,,,-99.99,,2013-01-18 06:42:00,
2013-01-18 01:52:00,36.0,28.0,30.06,NW,320,8.0,-999.0,74,0.00,,,-99.99,,2013-01-18 06:52:00,
2013-01-18 02:02:00,36.0,28.0,30.06,NW,320,8.0,-999.0,74,0.00,,,-99.99,,2013-01-18 07:02:00,
2013-01-18 02:11:00,34.0,28.0,30.08,NW,310,7.0,-999.0,80,0.00,,,-99.99,,2013-01-18 07:11:00,
2013-01-18 02:21:00,34.0,28.0,30.08,NNW,340,13.0,-999.0,80,0.00,,,-99.99,,2013-01-18 07:21:00,
2013-01-18 02:32:00,34.0,28.0,30.08,NNW,330,12.0,-999.0,80,0.00,,,-99.99,,2013-01-18 07:32:00,
2013-01-18 02:42:00,34.0,28.0,30.08,NNW,340,12.0,-999.0,80,0.00,,,-99.99,,2013-01-18 07:42:00,
2013-01-18 02:52:00,36.0,28.0,30.08,NW,320,9.0,16.0,74,0.00,,,-99.99,,2013-01-18 07:52:00,
2013-01-18 03:01:00,36.0,28.0,30.08,NW,320,9.0,16.0,74,0.00,,,-99.99,,2013-01-18 08:01:00,
2013-01-18 03:11:00,34.0,28.0,30.08,NW,320,13.0,-999.0,80,0.00,,,-99.99,,2013-01-18 08:11:00,
2013-01-18 03:21:00,34.0,28.0,30.09,NNW,330,12.0,-999.0,80,0.00,,,-99.99,,2013-01-18 08:21:00,
2013-01-18 03:32:00,34.0,28.0,30.09,NNW,330,10.0,-999.0,80,0.00,,,-99.99,,2013-01-18 08:32:00,
2013-01-18 03:42:00,34.0,28.0,30.09,NW,320,13.0,-999.0,80,0.00,,,-99.99,,2013-01-18 08:42:00,
2013-01-18 03:52:00,34.0,28.0,30.10,NNW,330,14.0,-999.0,80,0.00,,,-99.99,,2013-01-18 08:52:00,
2013-01-18 04:02:00,34.0,28.0,30.10,NNW,330,14.0,-999.0,80,0.00,,,-99.99,,2013-01-18 09:02:00,
2013-01-18 04:12:00,34.0,27.0,30.10,NNW,330,14.0,20.0,74,0.00,,,-99.99,,2013-01-18 09:12:00,
2013-01-18 04:21:00,34.0,27.0,30.11,NNW,340,16.0,20.0,74,0.00,,,-99.99,,2013-01-18 09:21:00,
2013-01-18 04:32:00,34.0,25.0,30.12,NNW,330,22.0,25.0,69,0.00,,,-99.99,,2013-01-18 09:32:00,
2013-01-18 04:42:00,34.0,23.0,30.12,NNW,340,14.0,27.0,64,0.00,,,-99.99,,2013-01-18 09:42:00,
2013-01-18 04:52:00,34.0,23.0,30.13,NNW,330,18.0,20.0,64,0.00,,,-99.99,,2013-01-18 09:52:00,
2013-01-18 05:02:00,34.0,23.0,30.13,NNW,330,18.0,20.0,64,0.00,,,-99.99,,2013-01-18 10:02:00,
2013-01-18 05:11:00,34.0,21.0,30.15,NNW,340,14.0,29.0,59,0.00,,,-99.99,,2013-01-18 10:11:00,
2013-01-18 05:22:00,32.0,23.0,30.16,North,350,17.0,18.0,69,0.00,,,-99.99,,2013-01-18 10:22:00,
2013-01-18 05:32:00,32.0,23.0,30.17,NNW,330,15.0,21.0,69,0.00,,,-99.99,,2013-01-18 10:32:00,
2013-01-18 05:42:00,32.0,23.0,30.18,NNW,330,16.0,18.0,69,0.00,,,-99.99,,2013-01-18 10:42:00,
2013-01-18 05:52:00,32.0,23.0,30.18,NW,320,10.0,18.0,69,0.00,,,-99.99,,2013-01-18 10:52:00,
2013-01-18 06:02:00,32.0,23.0,30.18,NW,320,10.0,18.0,69,0.00,,,-99.99,,2013-01-18 11:02:00,
2013-01-18 06:11:00,32.0,21.0,30.20,NNW,340,16.0,24.0,63,0.00,,,-99.99,,2013-01-18 11:11:00,
2013-01-18 06:22:00,32.0,19.0,30.21,NNW,330,22.0,31.0,59,0.00,,,-99.99,,2013-01-18 11:22:00,
2013-01-18 06:32:00,32.0,19.0,30.21,NNW,330,22.0,31.0,59,0.00,,,-99.99,,2013-01-18 11:32:00,
2013-01-18 06:42:00,32.0,19.0,30.23,North,360,16.0,25.0,59,0.00,,,-99.99,,2013-01-18 11:42:00,
2013-01-18 06:52:00,32.0,23.0,30.24,North,360,14.0,24.0,69,0.00,,,-99.99,,2013-01-18 11:52:00,
2013-01-18 07:02:00,32.0,23.0,30.24,North,360,14.0,24.0,69,0.00,,,-99.99,,2013-01-18 12:02:00,
2013-01-18 07:11:00,30.0,21.0,30.26,North,360,16.0,18.0,68,0.00,,,0.00,,2013-01-18 12:11:00,
2013-01-18 07:22:00,30.0,21.0,30.27,North,350,13.0,16.0,68,0.00,,,0.00,,2013-01-18 12:22:00,
2013-01-18 07:32:00,30.0,19.0,30.28,North,10,13.0,16.0,63,0.00,,,0.00,,2013-01-18 12:32:00,
2013-01-18 07:42:00,30.0,21.0,30.30,North,10,10.0,22.0,68,0.00,,,0.00,,2013-01-18 12:42:00,
2013-01-18 07:52:00,30.0,21.0,30.30,NNW,340,6.0,17.0,68,0.00,,,0.00,,2013-01-18 12:52:00,
2013-01-18 08:02:00,30.0,21.0,30.30,NNW,340,6.0,17.0,68,0.00,,,0.00,,2013-01-18 13:02:00,
2013-01-18 08:11:00,30.0,19.0,30.33,NNW,340,14.0,20.0,63,0.00,,,-99.99,,2013-01-18 13:11:00,
2013-01-18 08:22:00,28.0,21.0,30.35,North,0,13.0,20.0,74,0.00,,,-99.99,,2013-01-18 13:22:00,
2013-01-18 08:32:00,28.0,21.0,30.35,North,350,8.0,20.0,74,0.01,,,-99.99,,2013-01-18 13:32:00,
2013-01-18 08:42:00,28.0,19.0,30.36,North,0,9.0,20.0,68,0.01,,,-99.99,,2013-01-18 13:42:00,
2013-01-18 08:52:00,28.0,19.0,30.36,North,360,15.0,21.0,68,0.01,,,-99.99,,2013-01-18 13:52:00,
2013-01-18 09:02:00,28.0,19.0,30.36,North,360,15.0,21.0,68,0.01,,,-99.99,,2013-01-18 14:02:00,
2013-01-18 09:11:00,28.0,19.0,30.39,North,0,10.0,16.0,68,0.07,,,-99.99,,2013-01-18 14:11:00,
2013-01-18 09:22:00,28.0,18.0,30.40,North,0,10.0,22.0,63,0.07,,,-99.99,,2013-01-18 14:22:00,
2013-01-18 09:32:00,28.0,18.0,30.41,North,350,7.0,-999.0,63,0.00,,,-99.99,,2013-01-18 14:32:00,
2013-01-18 09:42:00,28.0,16.0,30.41,North,350,10.0,21.0,58,0.00,,,-99.99,,2013-01-18 14:42:00,
2013-01-18 09:52:00,30.0,16.0,30.41,North,360,10.0,21.0,54,0.00,,,-99.99,,2013-01-18 14:52:00,
2013-01-18 10:02:00,30.0,16.0,30.41,North,360,10.0,21.0,54,0.00,,,-99.99,,2013-01-18 15:02:00,
2013-01-18 10:11:00,30.0,14.0,30.42,North,0,8.0,18.0,50,0.00,,,-99.99,,2013-01-18 15:11:00,
2013-01-18 10:22:00,30.0,14.0,30.44,North,10,7.0,16.0,50,0.00,,,-99.99,,2013-01-18 15:22:00,
2013-01-18 10:32:00,30.0,16.0,30.44,North,0,7.0,16.0,54,0.00,,,-99.99,,2013-01-18 15:32:00,
2013-01-18 10:42:00,32.0,14.0,30.43,North,350,10.0,16.0,46,0.00,,,-99.99,,2013-01-18 15:42:00,
2013-01-18 10:52:00,32.0,14.0,30.44,North,350,10.0,-999.0,46,0.00,,,-99.99,,2013-01-18 15:52:00,
2013-01-18 11:02:00,32.0,14.0,30.44,North,350,10.0,-999.0,46,0.00,,,-99.99,,2013-01-18 16:02:00,
2013-01-18 11:11:00,28.0,14.0,30.45,North,10,9.0,-999.0,54,0.00,,,-99.99,,2013-01-18 16:11:00,
2013-01-18 11:22:00,30.0,16.0,30.45,NNW,340,10.0,-999.0,54,0.00,,,-99.99,,2013-01-18 16:22:00,
2013-01-18 11:32:00,30.0,18.0,30.44,North,10,12.0,17.0,59,0.00,,,-99.99,,2013-01-18 16:32:00,
2013-01-18 11:42:00,30.0,18.0,30.44,North,360,12.0,17.0,59,0.00,,,-99.99,,2013-01-18 16:42:00,
2013-01-18 11:52:00,30.0,14.0,30.44,NNW,330,8.0,16.0,50,0.00,,,-99.99,,2013-01-18 16:52:00,
2013-01-18 12:02:00,30.0,14.0,30.44,NNW,330,8.0,16.0,50,0.00,,,-99.99,,2013-01-18 17:02:00,
2013-01-18 12:11:00,32.0,14.0,30.43,NNW,340,8.0,16.0,46,0.00,,,-99.99,,2013-01-18 17:11:00,
2013-01-18 12:22:00,32.0,14.0,30.43,North,10,10.0,-999.0,46,0.00,,,-99.99,,2013-01-18 17:22:00,
2013-01-18 12:32:00,32.0,12.0,30.43,NNW,340,6.0,-999.0,43,0.00,,,-99.99,,2013-01-18 17:32:00,
2013-01-18 12:42:00,32.0,12.0,30.42,NW,320,8.0,-999.0,43,0.00,,,-99.99,,2013-01-18 17:42:00,
2013-01-18 12:52:00,32.0,16.0,30.43,North,360,7.0,-999.0,50,0.00,,,-99.99,,2013-01-18 17:52:00,
2013-01-18 13:02:00,32.0,16.0,30.43,North,360,7.0,-999.0,50,0.00,,,-99.99,,2013-01-18 18:02:00,
2013-01-18 13:11:00,32.0,12.0,30.43,WNW,300,8.0,16.0,43,0.00,,,-99.99,,2013-01-18 18:11:00,
2013-01-18 13:22:00,32.0,10.0,30.43,NW,320,7.0,16.0,40,0.00,,,-99.99,,2013-01-18 18:22:00,
2013-01-18 13:32:00,32.0,10.0,30.42,North,10,10.0,16.0,40,0.00,,,-99.99,,2013-01-18 18:32:00,
2013-01-18 13:42:00,32.0,10.0,30.43,North,350,5.0,16.0,40,0.00,,,-99.99,,2013-01-18 18:42:00,
2013-01-18 13:52:00,32.0,10.0,30.43,NW,310,8.0,-999.0,40,0.00,,,-99.99,,2013-01-18 18:52:00,
2013-01-18 14:01:00,32.0,10.0,30.43,NW,310,8.0,-999.0,40,0.00,,,-99.99,,2013-01-18 19:01:00,
2013-01-18 14:12:00,32.0,10.0,30.43,WNW,300,6.0,-999.0,40,0.00,,,-99.99,,2013-01-18 19:12:00,
2013-01-18 14:22:00,32.0,10.0,30.44,NW,310,7.0,-999.0,40,0.00,,,-99.99,,2013-01-18 19:22:00,
2013-01-18 14:32:00,32.0,9.0,30.44,NW,320,10.0,-999.0,36,0.00,,,-99.99,,2013-01-18 19:32:00,
2013-01-18 14:42:00,32.0,10.0,30.43,WNW,300,10.0,-999.0,40,0.00,,,-99.99,,2013-01-18 19:42:00,
2013-01-18 14:52:00,32.0,9.0,30.43,NNW,330,10.0,-999.0,36,0.00,,,-99.99,,2013-01-18 19:52:00,
2013-01-18 15:02:00,32.0,9.0,30.43,NNW,330,10.0,-999.0,36,0.00,,,-99.99,,2013-01-18 20:02:00,
2013-01-18 15:11:00,32.0,10.0,30.43,WNW,300,9.0,-999.0,40,0.00,,,-99.99,,2013-01-18 20:11:00,
2013-01-18 15:21:00,32.0,9.0,30.44,NW,320,7.0,-999.0,36,0.00,,,-99.99,,2013-01-18 20:21:00,
2013-01-18 15:32:00,32.0,10.0,30.45,WNW,290,7.0,-999.0,40,0.00,,,-99.99,,2013-01-18 20:32:00,
2013-01-18 15:42:00,32.0,10.0,30.45,NW,320,10.0,-999.0,40,0.00,,,-99.99,,2013-01-18 20:42:00,
2013-01-18 15:52:00,32.0,10.0,30.46,WNW,300,8.0,-999.0,40,0.00,,,-99.99,,2013-01-18 20:52:00,
2013-01-18 16:02:00,32.0,10.0,30.46,WNW,300,8.0,-999.0,40,0.00,,,-99.99,,2013-01-18 21:02:00,
2013-01-18 16:11:00,32.0,10.0,30.46,West,260,5.0,-999.0,40,0.00,,,-99.99,,2013-01-18 21:11:00,
2013-01-18 16:22:00,30.0,10.0,30.46,WNW,300,10.0,-999.0,43,0.00,,,-99.99,,2013-01-18 21:22:00,
2013-01-18 16:32:00,30.0,10.0,30.46,NW,310,6.0,-999.0,43,0.00,,,-99.99,,2013-01-18 21:32:00,
2013-01-18 16:42:00,30.0,10.0,30.46,WNW,290,9.0,-999.0,43,0.00,,,-99.99,,2013-01-18 21:42:00,
2013-01-18 16:52:00,30.0,9.0,30.45,WNW,290,7.0,-999.0,39,0.00,,,-99.99,,2013-01-18 21:52:00,
2013-01-18 17:02:00,30.0,9.0,30.45,WNW,290,7.0,-999.0,39,0.00,,,-99.99,,2013-01-18 22:02:00,
2013-01-18 17:11:00,30.0,9.0,30.46,WNW,300,5.0,-999.0,39,0.00,,,-99.99,,2013-01-18 22:11:00,
2013-01-18 17:22:00,28.0,10.0,30.46,NW,310,6.0,-999.0,46,0.00,,,-99.99,,2013-01-18 22:22:00,
2013-01-18 17:32:00,28.0,10.0,30.46,West,260,3.0,-999.0,46,0.00,,,-99.99,,2013-01-18 22:32:00,
2013-01-18 17:42:00,28.0,9.0,30.46,SW,220,1.0,-999.0,42,0.00,,,-99.99,,2013-01-18 22:42:00,
2013-01-18 17:52:00,30.0,9.0,30.46,SW,220,1.0,-999.0,39,0.00,,,-99.99,,2013-01-18 22:52:00,
2013-01-18 18:02:00,30.0,9.0,30.46,SW,220,1.0,-999.0,39,0.00,,,-99.99,,2013-01-18 23:02:00,
2013-01-18 18:11:00,28.0,10.0,30.47,SW,220,2.0,-999.0,46,0.00,,,-99.99,,2013-01-18 23:11:00,
2013-01-18 18:22:00,28.0,9.0,30.47,SW,220,2.0,-999.0,42,0.00,,,-99.99,,2013-01-18 23:22:00,
2013-01-18 18:32:00,28.0,10.0,30.47,South,190,2.0,-999.0,46,0.00,,,-99.99,,2013-01-18 23:32:00,
2013-01-18 18:42:00,28.0,10.0,30.47,SSW,210,1.0,-999.0,46,0.00,,,-99.99,,2013-01-18 23:42:00,
2013-01-18 18:52:00,28.0,10.0,30.46,South,180,2.0,-999.0,46,0.00,,,-99.99,,2013-01-18 23:52:00,
2013-01-18 19:02:00,28.0,10.0,30.46,South,180,2.0,-999.0,46,0.00,,,-99.99,,2013-01-19 00:02:00,
2013-01-18 19:12:00,28.0,10.0,30.47,SSE,160,1.0,-999.0,46,0.00,,,-99.99,,2013-01-19 00:12:00,
2013-01-18 19:22:00,28.0,10.0,30.47,SSW,200,3.0,-999.0,46,0.00,,,-99.99,,2013-01-19 00:22:00,
2013-01-18 19:32:00,28.0,10.0,30.48,South,170,3.0,-999.0,46,0.00,,,-99.99,,2013-01-19 00:32:00,
2013-01-18 19:42:00,28.0,10.0,30.47,South,180,2.0,-999.0,46,0.00,,,-99.99,,2013-01-19 00:42:00,
2013-01-18 19:52:00,28.0,10.0,30.46,SW,220,1.0,-999.0,46,0.00,,,-99.99,,2013-01-19 00:52:00,
2013-01-18 20:02:00,28.0,10.0,30.46,SW,220,1.0,-999.0,46,0.00,,,-99.99,,2013-01-19 01:02:00,
2013-01-18 20:11:00,28.0,12.0,30.47,SSE,160,2.0,-999.0,50,0.00,,,-99.99,,2013-01-19 01:11:00,
2013-01-18 20:21:00,27.0,12.0,30.46,SSE,160,2.0,-999.0,54,0.00,,,-99.99,,2013-01-19 01:21:00,
2013-01-18 20:32:00,27.0,12.0,30.47,North,0,0.0,-999.0,54,0.00,,,-99.99,,2013-01-19 01:32:00,
2013-01-18 20:42:00,28.0,12.0,30.47,WSW,240,2.0,-999.0,50,0.00,,,-99.99,,2013-01-19 01:42:00,
2013-01-18 20:52:00,28.0,12.0,30.47,SSW,200,3.0,-999.0,50,0.00,,,-99.99,,2013-01-19 01:52:00,
2013-01-18 21:02:00,28.0,12.0,30.47,SSW,200,3.0,-999.0,50,0.00,,,-99.99,,2013-01-19 02:02:00,
2013-01-18 21:11:00,28.0,12.0,30.45,SE,130,2.0,-999.0,50,0.00,,,-99.99,,2013-01-19 02:11:00,
2013-01-18 21:22:00,27.0,14.0,30.45,South,170,1.0,-999.0,58,0.00,,,-99.99,,2013-01-19 02:22:00,
2013-01-18 21:32:00,27.0,12.0,30.44,West,260,1.0,-999.0,54,0.00,,,-99.99,,2013-01-19 02:32:00,
2013-01-18 21:42:00,27.0,14.0,30.44,SSE,160,2.0,-999.0,58,0.00,,,-99.99,,2013-01-19 02:42:00,
2013-01-18 21:52:00,27.0,12.0,30.44,South,190,3.0,-999.0,54,0.00,,,-99.99,,2013-01-19 02:52:00,
2013-01-18 22:11:00,27.0,12.0,30.44,South,170,1.0,-999.0,54,0.00,,,-99.99,,2013-01-19 03:11:00,
2013-01-18 22:22:00,27.0,12.0,30.44,South,170,3.0,-999.0,54,0.00,,,-99.99,,2013-01-19 03:22:00,
2013-01-18 22:32:00,27.0,12.0,30.43,South,180,2.0,-999.0,54,0.00,,,-99.99,,2013-01-19 03:32:00,
2013-01-18 22:42:00,27.0,14.0,30.43,South,180,2.0,-999.0,58,0.00,,,-99.99,,2013-01-19 03:42:00,
2013-01-18 22:52:00,27.0,14.0,30.43,South,190,2.0,-999.0,58,0.00,,,-99.99,,2013-01-19 03:52:00,
2013-01-18 23:01:00,27.0,14.0,30.43,South,190,2.0,-999.0,58,0.00,,,-99.99,,2013-01-19 04:01:00,
2013-01-18 23:11:00,28.0,14.0,30.42,SSW,200,3.0,-999.0,54,0.00,,,-99.99,,2013-01-19 04:11:00,
2013-01-18 23:21:00,28.0,14.0,30.41,South,190,3.0,-999.0,54,0.00,,,-99.99,,2013-01-19 04:21:00,
2013-01-18 23:32:00,28.0,14.0,30.41,South,190,3.0,-999.0,54,0.00,,,-99.99,,2013-01-19 04:32:00,
2013-01-18 23:42:00,28.0,14.0,30.40,South,190,7.0,-999.0,54,0.00,,,-99.99,,2013-01-19 04:42:00,
2013-01-18 23:52:00,28.0,14.0,30.40,South,190,5.0,-999.0,54,0.00,,,-99.99,,2013-01-19 04:52:00,